TRA711 EBBR-LGSK
Flight info
| Callsign | TRA711 |
|---|---|
| Flight time | 2h 36m |
| Altitude | 35000 |
| Route | PITES DCT BABEG DCT KUMOM DCT NEMEK DCT ETOBI DCT MEDUX UM867 KOGAT DCT ERANA UL737 TSL |
| Aircraft | B738/M-SDE2E3FGHIRWXY/LB1 |
Departure
| Time | 2026-04-14 07:13 |
|---|---|
| Airport | Brussels Airport (EBBR) |
Arrival
| Time | 2026-04-14 09:49 |
|---|---|
| Airport | Skiathos Island National Airport (LGSK) |
| Time | Latitude | Longitude | Altitude | Speed | Heading |
|---|---|---|---|---|---|
| 2026-04-14 06:55 | 50.90299 | 4.48200 | 120 ft | 0 kts | 155° |
| 2026-04-14 07:02 | 50.90300 | 4.48200 | 120 ft | 1 kts | 155° |
| 2026-04-14 07:02 | 50.90313 | 4.48190 | 115 ft | 3 kts | 155° |
| 2026-04-14 07:02 | 50.90331 | 4.48177 | 115 ft | 3 kts | 155° |
| 2026-04-14 07:03 | 50.90347 | 4.48165 | 115 ft | 2 kts | 155° |
| 2026-04-14 07:03 | 50.90363 | 4.48151 | 117 ft | 3 kts | 129° |
| 2026-04-14 07:03 | 50.90369 | 4.48128 | 117 ft | 3 kts | 81° |
| 2026-04-14 07:03 | 50.90364 | 4.48101 | 117 ft | 2 kts | 65° |
| 2026-04-14 07:04 | 50.90361 | 4.48091 | 117 ft | 0 kts | 65° |
| 2026-04-14 07:05 | 50.90361 | 4.48092 | 117 ft | 1 kts | 65° |
| 2026-04-14 07:06 | 50.90379 | 4.48153 | 118 ft | 11 kts | 65° |
| 2026-04-14 07:06 | 50.90420 | 4.48296 | 119 ft | 16 kts | 65° |
| 2026-04-14 07:06 | 50.90467 | 4.48459 | 118 ft | 16 kts | 65° |
| 2026-04-14 07:06 | 50.90531 | 4.48587 | 117 ft | 15 kts | 20° |
| 2026-04-14 07:07 | 50.90609 | 4.48685 | 118 ft | 15 kts | 65° |
| 2026-04-14 07:07 | 50.90656 | 4.48841 | 120 ft | 16 kts | 65° |
| 2026-04-14 07:07 | 50.90702 | 4.48999 | 116 ft | 15 kts | 65° |
| 2026-04-14 07:07 | 50.90746 | 4.49150 | 120 ft | 15 kts | 65° |
| 2026-04-14 07:08 | 50.90788 | 4.49296 | 119 ft | 14 kts | 65° |
| 2026-04-14 07:08 | 50.90828 | 4.49435 | 120 ft | 14 kts | 65° |
| 2026-04-14 07:08 | 50.90866 | 4.49568 | 122 ft | 13 kts | 65° |
| 2026-04-14 07:08 | 50.90903 | 4.49696 | 119 ft | 13 kts | 65° |
| 2026-04-14 07:09 | 50.90947 | 4.49812 | 119 ft | 12 kts | 41° |
| 2026-04-14 07:09 | 50.90990 | 4.49871 | 120 ft | 8 kts | 39° |
| 2026-04-14 07:09 | 50.91025 | 4.49902 | 118 ft | 0 kts | 25° |
| 2026-04-14 07:10 | 50.91044 | 4.49915 | 119 ft | 8 kts | 23° |
| 2026-04-14 07:10 | 50.91120 | 4.49935 | 119 ft | 13 kts | 345° |
| 2026-04-14 07:11 | 50.91135 | 4.49873 | 117 ft | 0 kts | 244° |
| 2026-04-14 07:12 | 50.91091 | 4.49720 | 118 ft | 45 kts | 246° |
| 2026-04-14 07:12 | 50.90857 | 4.48912 | 118 ft | 114 kts | 246° |
| 2026-04-14 07:12 | 50.90443 | 4.47492 | 144 ft | 167 kts | 244° |
| 2026-04-14 07:13 | 50.89972 | 4.45771 | 828 ft | 170 kts | 246° |
| 2026-04-14 07:13 | 50.89476 | 4.44067 | 1659 ft | 174 kts | 245° |
| 2026-04-14 07:13 | 50.88835 | 4.42419 | 2360 ft | 177 kts | 220° |
| 2026-04-14 07:13 | 50.87672 | 4.41816 | 2894 ft | 192 kts | 175° |
| 2026-04-14 07:14 | 50.86423 | 4.42797 | 3110 ft | 216 kts | 135° |
| 2026-04-14 07:14 | 50.85393 | 4.44677 | 3336 ft | 236 kts | 130° |
| 2026-04-14 07:14 | 50.84301 | 4.46782 | 3567 ft | 257 kts | 130° |
| 2026-04-14 07:14 | 50.83139 | 4.49007 | 4200 ft | 265 kts | 130° |
| 2026-04-14 07:15 | 50.81954 | 4.51246 | 4981 ft | 267 kts | 130° |
| 2026-04-14 07:15 | 50.80746 | 4.53505 | 5722 ft | 270 kts | 131° |
| 2026-04-14 07:15 | 50.79524 | 4.55769 | 6494 ft | 272 kts | 131° |
| 2026-04-14 07:15 | 50.78279 | 4.58059 | 7197 ft | 276 kts | 131° |
| 2026-04-14 07:16 | 50.77021 | 4.60366 | 7900 ft | 279 kts | 131° |
| 2026-04-14 07:16 | 50.75744 | 4.62701 | 8589 ft | 282 kts | 131° |
| 2026-04-14 07:16 | 50.74449 | 4.65063 | 9288 ft | 286 kts | 132° |
| 2026-04-14 07:16 | 50.73129 | 4.67442 | 9976 ft | 289 kts | 132° |
| 2026-04-14 07:17 | 50.71787 | 4.69848 | 10496 ft | 298 kts | 132° |
| 2026-04-14 07:17 | 50.70365 | 4.72398 | 10653 ft | 320 kts | 132° |
| 2026-04-14 07:17 | 50.69077 | 4.75392 | 10783 ft | 342 kts | 111° |
| 2026-04-14 07:17 | 50.68380 | 4.79078 | 10951 ft | 360 kts | 104° |
| 2026-04-14 07:18 | 50.67724 | 4.82981 | 11125 ft | 377 kts | 105° |
| 2026-04-14 07:18 | 50.67016 | 4.87019 | 11535 ft | 385 kts | 105° |
| 2026-04-14 07:18 | 50.66134 | 4.90974 | 12061 ft | 391 kts | 118° |
| 2026-04-14 07:18 | 50.64448 | 4.94402 | 12675 ft | 395 kts | 135° |
| 2026-04-14 07:19 | 50.62497 | 4.97422 | 13258 ft | 400 kts | 135° |
| 2026-04-14 07:19 | 50.60480 | 5.00486 | 13797 ft | 406 kts | 135° |
| 2026-04-14 07:19 | 50.58431 | 5.03591 | 14345 ft | 410 kts | 135° |
| 2026-04-14 07:19 | 50.56376 | 5.06717 | 14978 ft | 412 kts | 135° |
| 2026-04-14 07:20 | 50.54315 | 5.09866 | 15630 ft | 414 kts | 135° |
| 2026-04-14 07:20 | 50.52248 | 5.13039 | 16249 ft | 417 kts | 135° |
| 2026-04-14 07:20 | 50.50167 | 5.16237 | 16827 ft | 420 kts | 135° |
| 2026-04-14 07:20 | 50.48073 | 5.19458 | 17395 ft | 423 kts | 136° |
| 2026-04-14 07:21 | 50.45962 | 5.22704 | 17998 ft | 426 kts | 136° |
| 2026-04-14 07:21 | 50.43831 | 5.25977 | 18552 ft | 429 kts | 136° |
| 2026-04-14 07:21 | 50.41691 | 5.29260 | 19059 ft | 432 kts | 136° |
| 2026-04-14 07:21 | 50.39536 | 5.32561 | 19565 ft | 434 kts | 136° |
| 2026-04-14 07:22 | 50.37369 | 5.35875 | 20040 ft | 437 kts | 136° |
| 2026-04-14 07:22 | 50.35189 | 5.39203 | 20526 ft | 439 kts | 136° |
| 2026-04-14 07:22 | 50.32994 | 5.42551 | 21022 ft | 441 kts | 136° |
| 2026-04-14 07:22 | 50.30817 | 5.45866 | 21465 ft | 444 kts | 136° |
| 2026-04-14 07:23 | 50.28600 | 5.49239 | 21906 ft | 446 kts | 136° |
| 2026-04-14 07:23 | 50.26367 | 5.52631 | 22360 ft | 449 kts | 136° |
| 2026-04-14 07:23 | 50.24123 | 5.56034 | 22816 ft | 451 kts | 136° |
| 2026-04-14 07:23 | 50.21834 | 5.59501 | 23266 ft | 454 kts | 137° |
| 2026-04-14 07:24 | 50.19589 | 5.62898 | 23660 ft | 456 kts | 137° |
| 2026-04-14 07:24 | 50.17298 | 5.66357 | 24002 ft | 459 kts | 137° |
| 2026-04-14 07:24 | 50.14998 | 5.69828 | 24345 ft | 461 kts | 137° |
| 2026-04-14 07:24 | 50.12685 | 5.73314 | 24683 ft | 463 kts | 137° |
| 2026-04-14 07:25 | 50.10361 | 5.76812 | 25004 ft | 465 kts | 137° |
| 2026-04-14 07:25 | 50.08025 | 5.80320 | 25321 ft | 468 kts | 137° |
| 2026-04-14 07:25 | 50.05677 | 5.83841 | 25623 ft | 470 kts | 137° |
| 2026-04-14 07:25 | 50.03312 | 5.87381 | 25932 ft | 472 kts | 137° |
| 2026-04-14 07:26 | 50.00967 | 5.90887 | 26219 ft | 474 kts | 137° |
| 2026-04-14 07:26 | 49.98553 | 5.94493 | 26514 ft | 476 kts | 137° |
| 2026-04-14 07:26 | 49.96160 | 5.98062 | 26799 ft | 478 kts | 137° |
| 2026-04-14 07:26 | 49.93756 | 6.01645 | 27075 ft | 480 kts | 137° |
| 2026-04-14 07:27 | 49.91368 | 6.05199 | 27347 ft | 482 kts | 137° |
| 2026-04-14 07:27 | 49.88943 | 6.08803 | 27636 ft | 483 kts | 137° |
| 2026-04-14 07:27 | 49.86540 | 6.12455 | 28038 ft | 482 kts | 132° |
| 2026-04-14 07:27 | 49.84645 | 6.16712 | 28446 ft | 481 kts | 117° |
| 2026-04-14 07:28 | 49.83146 | 6.21327 | 28922 ft | 478 kts | 116° |
| 2026-04-14 07:28 | 49.81661 | 6.25937 | 29293 ft | 479 kts | 116° |
| 2026-04-14 07:28 | 49.80152 | 6.30533 | 29616 ft | 479 kts | 117° |
| 2026-04-14 07:28 | 49.78614 | 6.35115 | 29975 ft | 479 kts | 117° |
| 2026-04-14 07:29 | 49.77060 | 6.39680 | 30351 ft | 478 kts | 117° |
| 2026-04-14 07:29 | 49.75503 | 6.44223 | 30655 ft | 477 kts | 117° |
| 2026-04-14 07:29 | 49.73967 | 6.48700 | 30909 ft | 478 kts | 117° |
| 2026-04-14 07:29 | 49.72411 | 6.53244 | 31182 ft | 478 kts | 117° |
| 2026-04-14 07:30 | 49.70907 | 6.57837 | 31474 ft | 478 kts | 116° |
| 2026-04-14 07:30 | 49.69449 | 6.62442 | 31794 ft | 477 kts | 115° |
| 2026-04-14 07:30 | 49.68007 | 6.67055 | 32096 ft | 476 kts | 115° |
| 2026-04-14 07:30 | 49.66570 | 6.71657 | 32377 ft | 476 kts | 116° |
| 2026-04-14 07:31 | 49.65126 | 6.76252 | 32664 ft | 476 kts | 116° |
| 2026-04-14 07:31 | 49.63677 | 6.80836 | 32957 ft | 475 kts | 116° |
| 2026-04-14 07:31 | 49.62225 | 6.85404 | 33238 ft | 475 kts | 116° |
| 2026-04-14 07:31 | 49.60766 | 6.89971 | 33496 ft | 475 kts | 116° |
| 2026-04-14 07:32 | 49.59302 | 6.94537 | 33772 ft | 474 kts | 116° |
| 2026-04-14 07:32 | 49.57838 | 6.99094 | 34055 ft | 474 kts | 116° |
| 2026-04-14 07:32 | 49.56374 | 7.03644 | 34281 ft | 474 kts | 116° |
| 2026-04-14 07:32 | 49.54911 | 7.08182 | 34510 ft | 473 kts | 116° |
| 2026-04-14 07:33 | 49.53446 | 7.12717 | 34728 ft | 473 kts | 116° |
| 2026-04-14 07:33 | 49.51976 | 7.17259 | 34932 ft | 473 kts | 116° |
| 2026-04-14 07:33 | 49.50506 | 7.21797 | 35129 ft | 473 kts | 116° |
| 2026-04-14 07:34 | 49.44628 | 7.39854 | 35143 ft | 470 kts | 116° |
| 2026-04-14 07:35 | 49.41697 | 7.48811 | 35146 ft | 467 kts | 117° |
| 2026-04-14 07:35 | 49.38780 | 7.57694 | 35154 ft | 465 kts | 117° |
| 2026-04-14 07:36 | 49.35867 | 7.66534 | 35149 ft | 464 kts | 117° |
| 2026-04-14 07:36 | 49.33423 | 7.73925 | 35154 ft | 464 kts | 117° |
| 2026-04-14 07:37 | 49.30516 | 7.82691 | 35153 ft | 464 kts | 117° |
| 2026-04-14 07:37 | 49.27580 | 7.91511 | 35147 ft | 465 kts | 117° |
| 2026-04-14 07:38 | 49.24628 | 8.00351 | 35141 ft | 466 kts | 117° |
| 2026-04-14 07:38 | 49.21663 | 8.09196 | 35137 ft | 467 kts | 117° |
| 2026-04-14 07:39 | 49.18684 | 8.18054 | 35133 ft | 468 kts | 117° |
| 2026-04-14 07:39 | 49.15715 | 8.26852 | 35139 ft | 469 kts | 117° |
| 2026-04-14 07:40 | 49.12721 | 8.35694 | 35132 ft | 469 kts | 118° |
| 2026-04-14 07:40 | 49.09718 | 8.44530 | 35133 ft | 469 kts | 118° |
| 2026-04-14 07:41 | 49.06702 | 8.53375 | 35123 ft | 469 kts | 118° |
| 2026-04-14 07:41 | 49.03686 | 8.62190 | 35124 ft | 468 kts | 118° |
| 2026-04-14 07:42 | 49.00672 | 8.70967 | 35118 ft | 467 kts | 118° |
| 2026-04-14 07:42 | 48.97650 | 8.79739 | 35115 ft | 467 kts | 118° |
| 2026-04-14 07:43 | 48.94650 | 8.88418 | 35114 ft | 466 kts | 118° |
| 2026-04-14 07:43 | 48.91615 | 8.97167 | 35112 ft | 467 kts | 118° |
| 2026-04-14 07:44 | 48.88574 | 9.05903 | 35097 ft | 468 kts | 118° |
| 2026-04-14 07:44 | 48.85527 | 9.14631 | 35100 ft | 468 kts | 118° |
| 2026-04-14 07:45 | 48.82469 | 9.23357 | 35102 ft | 468 kts | 118° |
| 2026-04-14 07:45 | 48.79405 | 9.32071 | 35111 ft | 469 kts | 118° |
| 2026-04-14 07:46 | 48.76344 | 9.40751 | 35102 ft | 470 kts | 118° |
| 2026-04-14 07:46 | 48.73248 | 9.49498 | 35107 ft | 471 kts | 118° |
| 2026-04-14 07:47 | 48.70144 | 9.58244 | 35100 ft | 472 kts | 118° |
| 2026-04-14 07:47 | 48.67026 | 9.66997 | 35105 ft | 472 kts | 119° |
| 2026-04-14 07:48 | 48.63742 | 9.75600 | 35110 ft | 472 kts | 121° |
| 2026-04-14 07:48 | 48.60345 | 9.84088 | 35098 ft | 471 kts | 122° |
| 2026-04-14 07:49 | 48.56985 | 9.92499 | 35104 ft | 470 kts | 122° |
| 2026-04-14 07:49 | 48.53627 | 10.00951 | 35104 ft | 469 kts | 121° |
| 2026-04-14 07:50 | 48.50284 | 10.09376 | 35111 ft | 467 kts | 122° |
| 2026-04-14 07:50 | 48.46942 | 10.17774 | 35111 ft | 466 kts | 122° |
| 2026-04-14 07:51 | 48.43618 | 10.26097 | 35105 ft | 464 kts | 122° |
| 2026-04-14 07:51 | 48.40413 | 10.34096 | 35102 ft | 463 kts | 122° |
| 2026-04-14 07:52 | 48.37083 | 10.42381 | 35111 ft | 462 kts | 122° |
| 2026-04-14 07:52 | 48.33772 | 10.50596 | 35093 ft | 462 kts | 122° |
| 2026-04-14 07:53 | 48.30443 | 10.58828 | 35098 ft | 460 kts | 122° |
| 2026-04-14 07:53 | 48.27118 | 10.67025 | 35100 ft | 459 kts | 122° |
| 2026-04-14 07:54 | 48.23797 | 10.75188 | 35101 ft | 458 kts | 123° |
| 2026-04-14 07:54 | 48.20474 | 10.83330 | 35101 ft | 457 kts | 123° |
| 2026-04-14 07:55 | 48.17152 | 10.91444 | 35108 ft | 456 kts | 123° |
| 2026-04-14 07:55 | 48.13826 | 10.99545 | 35098 ft | 456 kts | 123° |
| 2026-04-14 07:56 | 48.10501 | 11.07620 | 35099 ft | 456 kts | 123° |
| 2026-04-14 07:56 | 48.07164 | 11.15700 | 35105 ft | 456 kts | 123° |
| 2026-04-14 07:57 | 48.03825 | 11.23758 | 35110 ft | 456 kts | 123° |
| 2026-04-14 07:57 | 48.00501 | 11.31759 | 35110 ft | 457 kts | 123° |
| 2026-04-14 07:58 | 47.97142 | 11.39819 | 35094 ft | 457 kts | 124° |
| 2026-04-14 07:58 | 47.93780 | 11.47865 | 35094 ft | 457 kts | 124° |
| 2026-04-14 07:59 | 47.90411 | 11.55900 | 35094 ft | 456 kts | 124° |
| 2026-04-14 07:59 | 47.87044 | 11.63910 | 35088 ft | 456 kts | 124° |
| 2026-04-14 08:00 | 47.83675 | 11.71897 | 35088 ft | 455 kts | 124° |
| 2026-04-14 08:00 | 47.80303 | 11.79872 | 35085 ft | 455 kts | 124° |
| 2026-04-14 08:01 | 47.76928 | 11.87826 | 35078 ft | 454 kts | 124° |
| 2026-04-14 08:01 | 47.73580 | 11.95697 | 35079 ft | 454 kts | 125° |
| 2026-04-14 08:02 | 47.70202 | 12.03617 | 35067 ft | 453 kts | 125° |
| 2026-04-14 08:02 | 47.66824 | 12.11511 | 35072 ft | 453 kts | 125° |
| 2026-04-14 08:03 | 47.63442 | 12.19392 | 35067 ft | 453 kts | 125° |
| 2026-04-14 08:03 | 47.60048 | 12.27284 | 35069 ft | 453 kts | 125° |
| 2026-04-14 08:04 | 47.56670 | 12.35109 | 35061 ft | 453 kts | 126° |
| 2026-04-14 08:04 | 47.52694 | 12.42246 | 35067 ft | 448 kts | 136° |
| 2026-04-14 08:05 | 47.48362 | 12.48868 | 35048 ft | 447 kts | 137° |
| 2026-04-14 08:05 | 47.44039 | 12.55459 | 35038 ft | 447 kts | 137° |
| 2026-04-14 08:06 | 47.39733 | 12.62080 | 35051 ft | 447 kts | 137° |
| 2026-04-14 08:06 | 47.35437 | 12.68707 | 35042 ft | 446 kts | 137° |
| 2026-04-14 08:07 | 47.31145 | 12.75320 | 35041 ft | 446 kts | 137° |
| 2026-04-14 08:07 | 47.26847 | 12.81925 | 34999 ft | 446 kts | 137° |
| 2026-04-14 08:08 | 47.22544 | 12.88519 | 35018 ft | 446 kts | 137° |
| 2026-04-14 08:08 | 47.18244 | 12.95091 | 35004 ft | 446 kts | 137° |
| 2026-04-14 08:09 | 47.13941 | 13.01653 | 35009 ft | 446 kts | 137° |
| 2026-04-14 08:09 | 47.09629 | 13.08211 | 35004 ft | 446 kts | 137° |
| 2026-04-14 08:10 | 47.05320 | 13.14748 | 35001 ft | 445 kts | 137° |
| 2026-04-14 08:10 | 47.01009 | 13.21272 | 34985 ft | 445 kts | 137° |
| 2026-04-14 08:11 | 46.96693 | 13.27788 | 34994 ft | 446 kts | 137° |
| 2026-04-14 08:11 | 46.92389 | 13.34269 | 35002 ft | 447 kts | 137° |
| 2026-04-14 08:12 | 46.88043 | 13.40796 | 34991 ft | 448 kts | 137° |
| 2026-04-14 08:12 | 46.83687 | 13.47324 | 34998 ft | 449 kts | 137° |
| 2026-04-14 08:13 | 46.79322 | 13.53850 | 34994 ft | 449 kts | 137° |
| 2026-04-14 08:13 | 46.74943 | 13.60379 | 35006 ft | 450 kts | 137° |
| 2026-04-14 08:14 | 46.70559 | 13.66900 | 34990 ft | 450 kts | 137° |
| 2026-04-14 08:14 | 46.66200 | 13.73369 | 35002 ft | 449 kts | 137° |
| 2026-04-14 08:15 | 46.61815 | 13.79859 | 35012 ft | 449 kts | 137° |
| 2026-04-14 08:15 | 46.57437 | 13.86324 | 35015 ft | 448 kts | 137° |
| 2026-04-14 08:16 | 46.53059 | 13.92773 | 35024 ft | 448 kts | 137° |
| 2026-04-14 08:16 | 46.48677 | 13.99211 | 35028 ft | 448 kts | 137° |
| 2026-04-14 08:17 | 46.44293 | 14.05637 | 35028 ft | 448 kts | 137° |
| 2026-04-14 08:17 | 46.39918 | 14.12033 | 35020 ft | 447 kts | 137° |
| 2026-04-14 08:18 | 46.35544 | 14.18415 | 35022 ft | 446 kts | 137° |
| 2026-04-14 08:18 | 46.31170 | 14.24780 | 35021 ft | 445 kts | 137° |
| 2026-04-14 08:19 | 46.26807 | 14.31113 | 35015 ft | 445 kts | 137° |
| 2026-04-14 08:19 | 46.22470 | 14.37395 | 35022 ft | 444 kts | 137° |
| 2026-04-14 08:20 | 46.18102 | 14.43705 | 35015 ft | 443 kts | 137° |
| 2026-04-14 08:20 | 46.13740 | 14.49992 | 35019 ft | 443 kts | 137° |
| 2026-04-14 08:21 | 46.09370 | 14.56275 | 35018 ft | 443 kts | 137° |
| 2026-04-14 08:21 | 46.05000 | 14.62544 | 35017 ft | 443 kts | 137° |
| 2026-04-14 08:22 | 46.00625 | 14.68806 | 35025 ft | 444 kts | 137° |
| 2026-04-14 08:22 | 45.96977 | 14.74016 | 35025 ft | 444 kts | 137° |
| 2026-04-14 08:23 | 45.92578 | 14.80284 | 35027 ft | 445 kts | 137° |
| 2026-04-14 08:23 | 45.88171 | 14.86550 | 35029 ft | 445 kts | 137° |
| 2026-04-14 08:24 | 45.83760 | 14.92805 | 35033 ft | 446 kts | 137° |
| 2026-04-14 08:24 | 45.79370 | 14.99018 | 35038 ft | 447 kts | 137° |
| 2026-04-14 08:25 | 45.74940 | 15.05271 | 35046 ft | 447 kts | 137° |
| 2026-04-14 08:25 | 45.70496 | 15.11530 | 35024 ft | 448 kts | 137° |
| 2026-04-14 08:26 | 45.66052 | 15.17776 | 35037 ft | 447 kts | 137° |
| 2026-04-14 08:26 | 45.61609 | 15.24008 | 35029 ft | 448 kts | 137° |
| 2026-04-14 08:27 | 45.57175 | 15.30255 | 35034 ft | 448 kts | 135° |
| 2026-04-14 08:27 | 45.53101 | 15.36951 | 35031 ft | 450 kts | 132° |
| 2026-04-14 08:28 | 45.49092 | 15.43812 | 35032 ft | 450 kts | 132° |
| 2026-04-14 08:28 | 45.45062 | 15.50660 | 35031 ft | 451 kts | 132° |
| 2026-04-14 08:29 | 45.40997 | 15.57496 | 35030 ft | 452 kts | 132° |
| 2026-04-14 08:29 | 45.36917 | 15.64316 | 35025 ft | 453 kts | 132° |
| 2026-04-14 08:30 | 45.32824 | 15.71139 | 35023 ft | 453 kts | 132° |
| 2026-04-14 08:30 | 45.28754 | 15.77908 | 35019 ft | 454 kts | 132° |
| 2026-04-14 08:31 | 45.24649 | 15.84720 | 35011 ft | 454 kts | 132° |
| 2026-04-14 08:31 | 45.18486 | 15.94918 | 35017 ft | 454 kts | 132° |
| 2026-04-14 08:32 | 45.14357 | 16.01729 | 35017 ft | 456 kts | 132° |
| 2026-04-14 08:32 | 45.10215 | 16.08544 | 35012 ft | 457 kts | 132° |
| 2026-04-14 08:33 | 45.06063 | 16.15360 | 35007 ft | 456 kts | 133° |
| 2026-04-14 08:33 | 45.01922 | 16.22143 | 35006 ft | 455 kts | 133° |
| 2026-04-14 08:34 | 44.97777 | 16.28914 | 35020 ft | 455 kts | 133° |
| 2026-04-14 08:34 | 44.93626 | 16.35678 | 35016 ft | 455 kts | 133° |
| 2026-04-14 08:35 | 44.89498 | 16.42389 | 35002 ft | 456 kts | 133° |
| 2026-04-14 08:35 | 44.85331 | 16.49148 | 35002 ft | 455 kts | 133° |
| 2026-04-14 08:36 | 44.81176 | 16.55871 | 35001 ft | 455 kts | 133° |
| 2026-04-14 08:36 | 44.77018 | 16.62583 | 35003 ft | 454 kts | 133° |
| 2026-04-14 08:37 | 44.72868 | 16.69267 | 35001 ft | 454 kts | 133° |
| 2026-04-14 08:37 | 44.68720 | 16.75932 | 35010 ft | 456 kts | 133° |
| 2026-04-14 08:38 | 44.64536 | 16.82641 | 34985 ft | 456 kts | 133° |
| 2026-04-14 08:38 | 44.60359 | 16.89323 | 34986 ft | 455 kts | 133° |
| 2026-04-14 08:39 | 44.56277 | 16.96108 | 34990 ft | 455 kts | 130° |
| 2026-04-14 08:39 | 44.52363 | 17.03107 | 34989 ft | 455 kts | 129° |
| 2026-04-14 08:40 | 44.48472 | 17.10102 | 34977 ft | 455 kts | 129° |
| 2026-04-14 08:40 | 44.44555 | 17.17068 | 34979 ft | 455 kts | 129° |
| 2026-04-14 08:41 | 44.40642 | 17.23972 | 34970 ft | 456 kts | 130° |
| 2026-04-14 08:41 | 44.36689 | 17.30920 | 34977 ft | 456 kts | 130° |
| 2026-04-14 08:42 | 44.32732 | 17.37858 | 34983 ft | 457 kts | 130° |
| 2026-04-14 08:42 | 44.28755 | 17.44815 | 34977 ft | 459 kts | 130° |
| 2026-04-14 08:43 | 44.24760 | 17.51787 | 34981 ft | 460 kts | 130° |
| 2026-04-14 08:43 | 44.20763 | 17.58749 | 34978 ft | 460 kts | 130° |
| 2026-04-14 08:44 | 44.16759 | 17.65704 | 34974 ft | 460 kts | 130° |
| 2026-04-14 08:44 | 44.12772 | 17.72614 | 34979 ft | 460 kts | 130° |
| 2026-04-14 08:45 | 44.08758 | 17.79554 | 34986 ft | 460 kts | 130° |
| 2026-04-14 08:45 | 44.04742 | 17.86479 | 34978 ft | 459 kts | 130° |
| 2026-04-14 08:46 | 44.00728 | 17.93386 | 34978 ft | 459 kts | 131° |
| 2026-04-14 08:46 | 43.96707 | 18.00286 | 34979 ft | 459 kts | 131° |
| 2026-04-14 08:47 | 43.92691 | 18.07161 | 34994 ft | 458 kts | 131° |
| 2026-04-14 08:47 | 43.88675 | 18.14024 | 34974 ft | 458 kts | 131° |
| 2026-04-14 08:48 | 43.84652 | 18.20878 | 34984 ft | 460 kts | 131° |
| 2026-04-14 08:48 | 43.80607 | 18.27755 | 35000 ft | 460 kts | 131° |
| 2026-04-14 08:49 | 43.76581 | 18.34582 | 34978 ft | 460 kts | 131° |
| 2026-04-14 08:49 | 43.72534 | 18.41432 | 34993 ft | 460 kts | 132° |
| 2026-04-14 08:50 | 43.68481 | 18.48274 | 35001 ft | 459 kts | 132° |
| 2026-04-14 08:50 | 43.64435 | 18.55091 | 35003 ft | 459 kts | 132° |
| 2026-04-14 08:51 | 43.60375 | 18.61913 | 34999 ft | 459 kts | 132° |
| 2026-04-14 08:51 | 43.56314 | 18.68719 | 34999 ft | 460 kts | 131° |
| 2026-04-14 08:52 | 43.52273 | 18.75476 | 35004 ft | 460 kts | 131° |
| 2026-04-14 08:52 | 43.48201 | 18.82272 | 35006 ft | 460 kts | 132° |
| 2026-04-14 08:53 | 43.44114 | 18.89074 | 35004 ft | 460 kts | 132° |
| 2026-04-14 08:53 | 43.40025 | 18.95864 | 35005 ft | 461 kts | 132° |
| 2026-04-14 08:54 | 43.35924 | 19.02659 | 35003 ft | 461 kts | 132° |
| 2026-04-14 08:54 | 43.31820 | 19.09444 | 35006 ft | 462 kts | 132° |
| 2026-04-14 08:55 | 43.27710 | 19.16222 | 35002 ft | 462 kts | 132° |
| 2026-04-14 08:55 | 43.23618 | 19.22955 | 35012 ft | 463 kts | 132° |
| 2026-04-14 08:56 | 43.19485 | 19.29739 | 35012 ft | 463 kts | 133° |
| 2026-04-14 08:56 | 43.15348 | 19.36513 | 35018 ft | 464 kts | 133° |
| 2026-04-14 08:57 | 43.11198 | 19.43295 | 35013 ft | 464 kts | 133° |
| 2026-04-14 08:57 | 43.07046 | 19.50064 | 35015 ft | 465 kts | 133° |
| 2026-04-14 08:58 | 43.02885 | 19.56831 | 35014 ft | 465 kts | 133° |
| 2026-04-14 08:58 | 42.98708 | 19.63609 | 35030 ft | 465 kts | 133° |
| 2026-04-14 08:59 | 42.94527 | 19.70379 | 35009 ft | 466 kts | 133° |
| 2026-04-14 08:59 | 42.90346 | 19.77131 | 35021 ft | 466 kts | 133° |
| 2026-04-14 09:00 | 42.86157 | 19.83883 | 35042 ft | 467 kts | 134° |
| 2026-04-14 09:00 | 42.81978 | 19.90603 | 35040 ft | 468 kts | 134° |
| 2026-04-14 09:01 | 42.77759 | 19.97373 | 35045 ft | 469 kts | 134° |
| 2026-04-14 09:01 | 42.73537 | 20.04150 | 35045 ft | 469 kts | 134° |
| 2026-04-14 09:02 | 42.69381 | 20.10999 | 35059 ft | 469 kts | 133° |
| 2026-04-14 09:02 | 42.65246 | 20.17862 | 35075 ft | 469 kts | 133° |
| 2026-04-14 09:03 | 42.61126 | 20.24663 | 35072 ft | 469 kts | 133° |
| 2026-04-14 09:03 | 42.56967 | 20.31494 | 35067 ft | 470 kts | 133° |
| 2026-04-14 09:04 | 42.52806 | 20.38310 | 35077 ft | 469 kts | 134° |
| 2026-04-14 09:04 | 42.48634 | 20.45130 | 35082 ft | 469 kts | 134° |
| 2026-04-14 09:05 | 42.44456 | 20.51943 | 35079 ft | 469 kts | 134° |
| 2026-04-14 09:05 | 42.40279 | 20.58740 | 35077 ft | 470 kts | 134° |
| 2026-04-14 09:06 | 42.36101 | 20.65521 | 35077 ft | 470 kts | 134° |
| 2026-04-14 09:06 | 42.31916 | 20.72300 | 35079 ft | 470 kts | 134° |
| 2026-04-14 09:07 | 42.27725 | 20.79073 | 35080 ft | 470 kts | 134° |
| 2026-04-14 09:07 | 42.23553 | 20.85801 | 35087 ft | 470 kts | 134° |
| 2026-04-14 09:08 | 42.19347 | 20.92567 | 35076 ft | 469 kts | 135° |
| 2026-04-14 09:08 | 42.15149 | 20.99308 | 35104 ft | 469 kts | 135° |
| 2026-04-14 09:09 | 42.10921 | 21.06018 | 35094 ft | 468 kts | 138° |
| 2026-04-14 09:09 | 42.07078 | 21.11072 | 35118 ft | 464 kts | 142° |
| 2026-04-14 09:10 | 42.02340 | 21.16979 | 35126 ft | 464 kts | 142° |
| 2026-04-14 09:10 | 41.97596 | 21.22903 | 35116 ft | 465 kts | 142° |
| 2026-04-14 09:11 | 41.92875 | 21.28850 | 35142 ft | 465 kts | 142° |
| 2026-04-14 09:11 | 41.88163 | 21.34798 | 35146 ft | 465 kts | 142° |
| 2026-04-14 09:12 | 41.83446 | 21.40743 | 35152 ft | 465 kts | 142° |
| 2026-04-14 09:12 | 41.78748 | 21.46649 | 35136 ft | 466 kts | 142° |
| 2026-04-14 09:13 | 41.74016 | 21.52583 | 35149 ft | 466 kts | 142° |
| 2026-04-14 09:13 | 41.69281 | 21.58510 | 35137 ft | 465 kts | 143° |
| 2026-04-14 09:14 | 41.64546 | 21.64423 | 35145 ft | 466 kts | 143° |
| 2026-04-14 09:14 | 41.59799 | 21.70339 | 35146 ft | 467 kts | 143° |
| 2026-04-14 09:15 | 41.55037 | 21.76261 | 35138 ft | 468 kts | 143° |
| 2026-04-14 09:15 | 41.50299 | 21.82141 | 35142 ft | 468 kts | 143° |
| 2026-04-14 09:16 | 41.45528 | 21.88050 | 35141 ft | 468 kts | 143° |
| 2026-04-14 09:16 | 41.40751 | 21.93954 | 35149 ft | 468 kts | 143° |
| 2026-04-14 09:17 | 41.35974 | 21.99846 | 35155 ft | 467 kts | 143° |
| 2026-04-14 09:17 | 41.31201 | 22.05719 | 35164 ft | 467 kts | 144° |
| 2026-04-14 09:18 | 41.26427 | 22.11584 | 35164 ft | 467 kts | 144° |
| 2026-04-14 09:18 | 41.21657 | 22.17431 | 35176 ft | 466 kts | 144° |
| 2026-04-14 09:19 | 41.16912 | 22.23236 | 35174 ft | 465 kts | 144° |
| 2026-04-14 09:19 | 41.12012 | 22.28779 | 35190 ft | 461 kts | 148° |
| 2026-04-14 09:20 | 41.06996 | 22.34084 | 35186 ft | 461 kts | 148° |
| 2026-04-14 09:20 | 41.01983 | 22.39390 | 35198 ft | 461 kts | 148° |
| 2026-04-14 09:21 | 40.96987 | 22.44722 | 35202 ft | 461 kts | 148° |
| 2026-04-14 09:21 | 40.91997 | 22.50060 | 35198 ft | 461 kts | 148° |
| 2026-04-14 09:22 | 40.87002 | 22.55396 | 35204 ft | 462 kts | 148° |
| 2026-04-14 09:22 | 40.82027 | 22.60696 | 35201 ft | 463 kts | 148° |
| 2026-04-14 09:23 | 40.77000 | 22.66040 | 35215 ft | 464 kts | 149° |
| 2026-04-14 09:23 | 40.72135 | 22.71202 | 35217 ft | 465 kts | 149° |
| 2026-04-14 09:24 | 40.69606 | 22.73880 | 34956 ft | 470 kts | 149° |
| 2026-04-14 09:24 | 40.67036 | 22.76596 | 34352 ft | 472 kts | 149° |
| 2026-04-14 09:24 | 40.64482 | 22.79300 | 33608 ft | 471 kts | 150° |
| 2026-04-14 09:24 | 40.61928 | 22.82001 | 32873 ft | 470 kts | 150° |
| 2026-04-14 09:25 | 40.59371 | 22.84702 | 32123 ft | 471 kts | 150° |
| 2026-04-14 09:25 | 40.56815 | 22.87397 | 31368 ft | 471 kts | 151° |
| 2026-04-14 09:25 | 40.54254 | 22.90093 | 30596 ft | 472 kts | 151° |
| 2026-04-14 09:25 | 40.51714 | 22.92765 | 29733 ft | 474 kts | 151° |
| 2026-04-14 09:26 | 40.49138 | 22.95472 | 28796 ft | 474 kts | 150° |
| 2026-04-14 09:26 | 40.46524 | 22.98087 | 27909 ft | 468 kts | 155° |
| 2026-04-14 09:26 | 40.43724 | 23.00196 | 26966 ft | 458 kts | 163° |
| 2026-04-14 09:26 | 40.40784 | 23.01701 | 26266 ft | 449 kts | 167° |
| 2026-04-14 09:27 | 40.37862 | 23.03104 | 25590 ft | 445 kts | 167° |
| 2026-04-14 09:27 | 40.34968 | 23.04500 | 24949 ft | 441 kts | 166° |
| 2026-04-14 09:27 | 40.32095 | 23.05899 | 24313 ft | 438 kts | 166° |
| 2026-04-14 09:27 | 40.29252 | 23.07294 | 23649 ft | 435 kts | 165° |
| 2026-04-14 09:28 | 40.26425 | 23.08690 | 22913 ft | 432 kts | 165° |
| 2026-04-14 09:28 | 40.23668 | 23.10056 | 22266 ft | 427 kts | 165° |
| 2026-04-14 09:28 | 40.20876 | 23.11441 | 21621 ft | 422 kts | 165° |
| 2026-04-14 09:28 | 40.18174 | 23.12781 | 21000 ft | 418 kts | 165° |
| 2026-04-14 09:29 | 40.15468 | 23.14121 | 20385 ft | 414 kts | 165° |
| 2026-04-14 09:29 | 40.12782 | 23.15450 | 19770 ft | 410 kts | 164° |
| 2026-04-14 09:29 | 40.10125 | 23.16762 | 19170 ft | 406 kts | 164° |
| 2026-04-14 09:29 | 40.07485 | 23.18064 | 18571 ft | 403 kts | 164° |
| 2026-04-14 09:30 | 40.04866 | 23.19356 | 17903 ft | 400 kts | 164° |
| 2026-04-14 09:30 | 40.02296 | 23.20622 | 17256 ft | 396 kts | 164° |
| 2026-04-14 09:30 | 39.99730 | 23.21886 | 16652 ft | 392 kts | 164° |
| 2026-04-14 09:30 | 39.97190 | 23.23137 | 16051 ft | 388 kts | 164° |
| 2026-04-14 09:31 | 39.94666 | 23.24377 | 15457 ft | 385 kts | 164° |
| 2026-04-14 09:31 | 39.92163 | 23.25607 | 14880 ft | 382 kts | 164° |
| 2026-04-14 09:31 | 39.89685 | 23.26823 | 14307 ft | 379 kts | 164° |
| 2026-04-14 09:31 | 39.87217 | 23.28033 | 13690 ft | 377 kts | 164° |
| 2026-04-14 09:32 | 39.84804 | 23.29214 | 13078 ft | 374 kts | 164° |
| 2026-04-14 09:32 | 39.82383 | 23.30399 | 12469 ft | 371 kts | 163° |
| 2026-04-14 09:32 | 39.77572 | 23.32752 | 11398 ft | 364 kts | 163° |
| 2026-04-14 09:33 | 39.75256 | 23.33887 | 11250 ft | 349 kts | 163° |
| 2026-04-14 09:33 | 39.73023 | 23.34981 | 11090 ft | 337 kts | 163° |
| 2026-04-14 09:33 | 39.70867 | 23.36035 | 10940 ft | 325 kts | 163° |
| 2026-04-14 09:33 | 39.68785 | 23.37051 | 10805 ft | 314 kts | 163° |
| 2026-04-14 09:34 | 39.66792 | 23.38023 | 10676 ft | 304 kts | 163° |
| 2026-04-14 09:34 | 39.64841 | 23.38973 | 10550 ft | 295 kts | 163° |
| 2026-04-14 09:34 | 39.62946 | 23.39894 | 10426 ft | 286 kts | 164° |
| 2026-04-14 09:34 | 39.61114 | 23.40785 | 10312 ft | 277 kts | 164° |
| 2026-04-14 09:35 | 39.59333 | 23.41651 | 10189 ft | 269 kts | 164° |
| 2026-04-14 09:35 | 39.57590 | 23.42496 | 9906 ft | 267 kts | 164° |
| 2026-04-14 09:35 | 39.55856 | 23.43335 | 9630 ft | 265 kts | 164° |
| 2026-04-14 09:35 | 39.54133 | 23.44170 | 9351 ft | 263 kts | 163° |
| 2026-04-14 09:36 | 39.52425 | 23.44998 | 9092 ft | 260 kts | 163° |
| 2026-04-14 09:36 | 39.50737 | 23.45816 | 8812 ft | 259 kts | 163° |
| 2026-04-14 09:36 | 39.49054 | 23.46632 | 8540 ft | 257 kts | 163° |
| 2026-04-14 09:36 | 39.47384 | 23.47441 | 8271 ft | 255 kts | 163° |
| 2026-04-14 09:37 | 39.45742 | 23.48235 | 8015 ft | 254 kts | 163° |
| 2026-04-14 09:37 | 39.44090 | 23.49034 | 7743 ft | 253 kts | 163° |
| 2026-04-14 09:37 | 39.42427 | 23.49839 | 7470 ft | 252 kts | 162° |
| 2026-04-14 09:37 | 39.40810 | 23.50620 | 7161 ft | 252 kts | 162° |
| 2026-04-14 09:38 | 39.39161 | 23.51417 | 6871 ft | 252 kts | 162° |
| 2026-04-14 09:38 | 39.37520 | 23.52210 | 6591 ft | 251 kts | 162° |
| 2026-04-14 09:38 | 39.35880 | 23.53003 | 6308 ft | 251 kts | 162° |
| 2026-04-14 09:38 | 39.34249 | 23.53791 | 6022 ft | 250 kts | 161° |
| 2026-04-14 09:39 | 39.32627 | 23.54575 | 5751 ft | 248 kts | 161° |
| 2026-04-14 09:39 | 39.31015 | 23.55353 | 5486 ft | 247 kts | 161° |
| 2026-04-14 09:39 | 39.29409 | 23.56128 | 5233 ft | 245 kts | 161° |
| 2026-04-14 09:39 | 39.27821 | 23.56894 | 4967 ft | 243 kts | 161° |
| 2026-04-14 09:40 | 39.26251 | 23.57651 | 4675 ft | 237 kts | 161° |
| 2026-04-14 09:40 | 39.24725 | 23.58387 | 4299 ft | 234 kts | 161° |
| 2026-04-14 09:40 | 39.23220 | 23.59112 | 4198 ft | 225 kts | 161° |
| 2026-04-14 09:40 | 39.21782 | 23.59804 | 4150 ft | 215 kts | 161° |
| 2026-04-14 09:41 | 39.20398 | 23.60470 | 4145 ft | 211 kts | 161° |
| 2026-04-14 09:41 | 39.19040 | 23.61120 | 4156 ft | 210 kts | 162° |
| 2026-04-14 09:41 | 39.17601 | 23.61216 | 4041 ft | 214 kts | 198° |
| 2026-04-14 09:41 | 39.16271 | 23.60369 | 3880 ft | 211 kts | 207° |
| 2026-04-14 09:42 | 39.15001 | 23.59489 | 3667 ft | 204 kts | 206° |
| 2026-04-14 09:42 | 39.13757 | 23.58673 | 3449 ft | 197 kts | 205° |
| 2026-04-14 09:42 | 39.12543 | 23.57890 | 3242 ft | 194 kts | 205° |
| 2026-04-14 09:42 | 39.11332 | 23.57105 | 3035 ft | 194 kts | 205° |
| 2026-04-14 09:43 | 39.10128 | 23.56321 | 2837 ft | 194 kts | 205° |
| 2026-04-14 09:43 | 39.08922 | 23.55535 | 2634 ft | 195 kts | 205° |
| 2026-04-14 09:43 | 39.07711 | 23.54747 | 2424 ft | 195 kts | 205° |
| 2026-04-14 09:43 | 39.06478 | 23.53981 | 2141 ft | 200 kts | 205° |
| 2026-04-14 09:44 | 39.05270 | 23.53205 | 2002 ft | 194 kts | 205° |
| 2026-04-14 09:44 | 39.04078 | 23.52413 | 2018 ft | 192 kts | 206° |
| 2026-04-14 09:44 | 39.02905 | 23.51593 | 2040 ft | 190 kts | 214° |
| 2026-04-14 09:44 | 39.02165 | 23.50217 | 2084 ft | 190 kts | 259° |
| 2026-04-14 09:45 | 39.02350 | 23.48529 | 1989 ft | 197 kts | 303° |
| 2026-04-14 09:45 | 39.03317 | 23.47329 | 1918 ft | 192 kts | 329° |
| 2026-04-14 09:45 | 39.04483 | 23.46475 | 1901 ft | 193 kts | 341° |
| 2026-04-14 09:45 | 39.05768 | 23.46422 | 1830 ft | 185 kts | 15° |
| 2026-04-14 09:46 | 39.06954 | 23.46887 | 1740 ft | 173 kts | 18° |
| 2026-04-14 09:46 | 39.08142 | 23.47275 | 1622 ft | 177 kts | 14° |
| 2026-04-14 09:46 | 39.09340 | 23.47625 | 1523 ft | 176 kts | 15° |
| 2026-04-14 09:46 | 39.10499 | 23.47971 | 1298 ft | 165 kts | 15° |
| 2026-04-14 09:47 | 39.11582 | 23.48198 | 1107 ft | 149 kts | 8° |
| 2026-04-14 09:47 | 39.12568 | 23.48319 | 938 ft | 140 kts | 7° |
| 2026-04-14 09:47 | 39.13493 | 23.48537 | 714 ft | 134 kts | 16° |
| 2026-04-14 09:47 | 39.14387 | 23.48894 | 520 ft | 136 kts | 20° |
| 2026-04-14 09:48 | 39.15302 | 23.49282 | 334 ft | 138 kts | 18° |
| 2026-04-14 09:48 | 39.16196 | 23.49693 | 159 ft | 135 kts | 20° |
| 2026-04-14 09:48 | 39.17060 | 23.50074 | 38 ft | 127 kts | 19° |
| 2026-04-14 09:48 | 39.17719 | 23.50372 | 62 ft | 53 kts | 19° |
| 2026-04-14 09:49 | 39.17907 | 23.50455 | 68 ft | 9 kts | 18° |
| 2026-04-14 09:49 | 39.17951 | 23.50418 | 60 ft | 9 kts | 265° |
| 2026-04-14 09:49 | 39.17940 | 23.50356 | 67 ft | 1 kts | 258° |
| 2026-04-14 09:49 | 39.17938 | 23.50341 | 64 ft | 2 kts | 259° |
| 2026-04-14 09:50 | 39.17925 | 23.50324 | 62 ft | 4 kts | 207° |
| 2026-04-14 09:50 | 39.17902 | 23.50313 | 59 ft | 0 kts | 200° |
| 2026-04-14 09:50 | 39.17901 | 23.50312 | 59 ft | 1 kts | 206° |
| 2026-04-14 09:51 | 39.17895 | 23.50289 | 58 ft | 4 kts | 278° |
| 2026-04-14 09:51 | 39.17905 | 23.50252 | 62 ft | 4 kts | 289° |
| 2026-04-14 09:51 | 39.17911 | 23.50231 | 60 ft | 0 kts | 289° |